sensor_id;sensor_type;location;lat;lon;timestamp;temperature;humidity
48208;DHT22;33997;53.278;9.708;2023-03-14T00:01:17;9.00;97.10
48208;DHT22;33997;53.278;9.708;2023-03-14T00:03:43;8.90;97.20
48208;DHT22;33997;53.278;9.708;2023-03-14T00:06:09;8.90;97.60
48208;DHT22;33997;53.278;9.708;2023-03-14T00:08:36;9.10;97.70
48208;DHT22;33997;53.278;9.708;2023-03-14T00:11:06;9.10;97.30
48208;DHT22;33997;53.278;9.708;2023-03-14T00:13:32;9.10;97.10
48208;DHT22;33997;53.278;9.708;2023-03-14T00:16:10;9.10;97.00
48208;DHT22;33997;53.278;9.708;2023-03-14T00:18:35;9.10;96.80
48208;DHT22;33997;53.278;9.708;2023-03-14T00:21:03;9.30;96.90
48208;DHT22;33997;53.278;9.708;2023-03-14T00:23:30;9.30;96.30
48208;DHT22;33997;53.278;9.708;2023-03-14T00:26:00;9.30;96.20
48208;DHT22;33997;53.278;9.708;2023-03-14T00:28:26;9.30;96.20
48208;DHT22;33997;53.278;9.708;2023-03-14T00:30:53;9.30;96.30
48208;DHT22;33997;53.278;9.708;2023-03-14T00:33:18;9.40;96.40
48208;DHT22;33997;53.278;9.708;2023-03-14T00:35:58;9.40;96.40
48208;DHT22;33997;53.278;9.708;2023-03-14T00:38:25;9.30;96.30
48208;DHT22;33997;53.278;9.708;2023-03-14T00:40:51;9.30;96.70
48208;DHT22;33997;53.278;9.708;2023-03-14T00:43:17;9.50;96.20
48208;DHT22;33997;53.278;9.708;2023-03-14T00:45:43;9.50;96.00
48208;DHT22;33997;53.278;9.708;2023-03-14T00:48:08;9.50;96.00
48208;DHT22;33997;53.278;9.708;2023-03-14T00:50:34;9.60;95.70
48208;DHT22;33997;53.278;9.708;2023-03-14T00:52:59;9.60;95.70
48208;DHT22;33997;53.278;9.708;2023-03-14T00:55:25;9.70;95.40
48208;DHT22;33997;53.278;9.708;2023-03-14T00:57:50;9.70;95.50
48208;DHT22;33997;53.278;9.708;2023-03-14T01:00:16;9.60;95.50
48208;DHT22;33997;53.278;9.708;2023-03-14T01:02:42;9.60;95.60
48208;DHT22;33997;53.278;9.708;2023-03-14T01:05:08;9.60;95.50
48208;DHT22;33997;53.278;9.708;2023-03-14T01:07:36;9.60;95.30
48208;DHT22;33997;53.278;9.708;2023-03-14T01:10:01;9.60;95.50
48208;DHT22;33997;53.278;9.708;2023-03-14T01:12:27;9.60;95.50
48208;DHT22;33997;53.278;9.708;2023-03-14T01:14:53;9.70;95.30
48208;DHT22;33997;53.278;9.708;2023-03-14T01:17:18;9.70;95.30
48208;DHT22;33997;53.278;9.708;2023-03-14T01:19:44;9.80;95.20
48208;DHT22;33997;53.278;9.708;2023-03-14T01:22:09;9.80;94.40
48208;DHT22;33997;53.278;9.708;2023-03-14T01:24:36;9.80;94.70
48208;DHT22;33997;53.278;9.708;2023-03-14T01:27:02;9.80;94.70
48208;DHT22;33997;53.278;9.708;2023-03-14T01:29:27;9.80;94.40
48208;DHT22;33997;53.278;9.708;2023-03-14T01:31:53;9.70;94.60
48208;DHT22;33997;53.278;9.708;2023-03-14T01:34:18;9.80;94.30
48208;DHT22;33997;53.278;9.708;2023-03-14T01:36:44;9.60;94.60
48208;DHT22;33997;53.278;9.708;2023-03-14T01:39:09;9.60;94.30
48208;DHT22;33997;53.278;9.708;2023-03-14T01:41:35;9.60;94.20
48208;DHT22;33997;53.278;9.708;2023-03-14T01:44:00;9.50;94.00
48208;DHT22;33997;53.278;9.708;2023-03-14T01:54:33;9.50;94.30
48208;DHT22;33997;53.278;9.708;2023-03-14T01:57:08;9.40;94.30
48208;DHT22;33997;53.278;9.708;2023-03-14T01:59:37;9.50;94.40
48208;DHT22;33997;53.278;9.708;2023-03-14T02:02:06;9.50;94.30
48208;DHT22;33997;53.278;9.708;2023-03-14T02:04:34;9.60;94.20
48208;DHT22;33997;53.278;9.708;2023-03-14T02:07:14;9.60;94.10
48208;DHT22;33997;53.278;9.708;2023-03-14T02:09:41;9.50;94.10
48208;DHT22;33997;53.278;9.708;2023-03-14T02:12:09;9.60;94.10
48208;DHT22;33997;53.278;9.708;2023-03-14T02:14:36;9.60;94.40
48208;DHT22;33997;53.278;9.708;2023-03-14T02:17:03;9.50;94.60
48208;DHT22;33997;53.278;9.708;2023-03-14T02:19:49;9.50;95.00
48208;DHT22;33997;53.278;9.708;2023-03-14T02:22:16;9.50;94.90
48208;DHT22;33997;53.278;9.708;2023-03-14T02:24:56;9.40;95.20
48208;DHT22;33997;53.278;9.708;2023-03-14T02:27:25;9.50;95.00
48208;DHT22;33997;53.278;9.708;2023-03-14T02:29:56;9.40;95.30
48208;DHT22;33997;53.278;9.708;2023-03-14T02:32:24;9.50;95.10
48208;DHT22;33997;53.278;9.708;2023-03-14T02:34:54;9.40;95.20
48208;DHT22;33997;53.278;9.708;2023-03-14T02:37:23;9.40;95.00
48208;DHT22;33997;53.278;9.708;2023-03-14T02:39:49;9.50;95.00
48208;DHT22;33997;53.278;9.708;2023-03-14T02:42:15;9.50;94.70
48208;DHT22;33997;53.278;9.708;2023-03-14T02:45:25;9.50;94.80
48208;DHT22;33997;53.278;9.708;2023-03-14T02:47:44;9.60;94.40
48208;DHT22;33997;53.278;9.708;2023-03-14T02:50:15;9.50;94.50
48208;DHT22;33997;53.278;9.708;2023-03-14T02:52:41;9.60;93.80
48208;DHT22;33997;53.278;9.708;2023-03-14T02:55:07;9.60;94.00
48208;DHT22;33997;53.278;9.708;2023-03-14T02:57:32;9.50;94.10
48208;DHT22;33997;53.278;9.708;2023-03-14T02:59:59;9.60;93.70
48208;DHT22;33997;53.278;9.708;2023-03-14T03:02:25;9.70;93.10
48208;DHT22;33997;53.278;9.708;2023-03-14T03:04:51;9.70;92.90
48208;DHT22;33997;53.278;9.708;2023-03-14T03:07:16;9.60;93.30
48208;DHT22;33997;53.278;9.708;2023-03-14T03:09:42;9.80;92.70
48208;DHT22;33997;53.278;9.708;2023-03-14T03:12:07;9.90;92.10
48208;DHT22;33997;53.278;9.708;2023-03-14T03:14:33;9.90;92.30
48208;DHT22;33997;53.278;9.708;2023-03-14T03:16:58;10.00;92.00
48208;DHT22;33997;53.278;9.708;2023-03-14T03:19:24;10.00;91.90
48208;DHT22;33997;53.278;9.708;2023-03-14T03:21:49;10.00;91.70
48208;DHT22;33997;53.278;9.708;2023-03-14T03:24:15;10.00;91.90
48208;DHT22;33997;53.278;9.708;2023-03-14T03:26:40;10.00;92.00
48208;DHT22;33997;53.278;9.708;2023-03-14T03:29:06;10.00;91.80
48208;DHT22;33997;53.278;9.708;2023-03-14T03:31:31;10.10;91.40
48208;DHT22;33997;53.278;9.708;2023-03-14T03:33:57;10.10;91.30
48208;DHT22;33997;53.278;9.708;2023-03-14T03:36:24;10.10;91.00
48208;DHT22;33997;53.278;9.708;2023-03-14T03:38:50;10.10;90.70
48208;DHT22;33997;53.278;9.708;2023-03-14T03:41:15;10.10;90.60
48208;DHT22;33997;53.278;9.708;2023-03-14T03:43:41;10.20;90.20
48208;DHT22;33997;53.278;9.708;2023-03-14T03:46:07;10.20;90.00
48208;DHT22;33997;53.278;9.708;2023-03-14T03:48:33;10.20;89.80
48208;DHT22;33997;53.278;9.708;2023-03-14T03:50:58;10.10;90.30
48208;DHT22;33997;53.278;9.708;2023-03-14T03:53:24;10.10;90.20
48208;DHT22;33997;53.278;9.708;2023-03-14T03:55:50;10.00;90.80
48208;DHT22;33997;53.278;9.708;2023-03-14T03:58:15;10.10;90.40
48208;DHT22;33997;53.278;9.708;2023-03-14T04:00:41;10.10;89.90
48208;DHT22;33997;53.278;9.708;2023-03-14T04:03:06;10.10;89.70
48208;DHT22;33997;53.278;9.708;2023-03-14T04:05:32;10.20;89.50
48208;DHT22;33997;53.278;9.708;2023-03-14T04:07:57;10.20;89.40
48208;DHT22;33997;53.278;9.708;2023-03-14T04:10:23;10.20;89.70
48208;DHT22;33997;53.278;9.708;2023-03-14T04:12:48;10.30;88.90
48208;DHT22;33997;53.278;9.708;2023-03-14T04:15:14;10.40;88.80
48208;DHT22;33997;53.278;9.708;2023-03-14T04:17:39;10.30;89.10
48208;DHT22;33997;53.278;9.708;2023-03-14T04:20:05;10.40;88.60
48208;DHT22;33997;53.278;9.708;2023-03-14T04:22:36;10.50;88.50
48208;DHT22;33997;53.278;9.708;2023-03-14T04:25:01;10.30;88.60
48208;DHT22;33997;53.278;9.708;2023-03-14T04:27:28;10.50;88.20
48208;DHT22;33997;53.278;9.708;2023-03-14T04:29:54;10.50;88.10
48208;DHT22;33997;53.278;9.708;2023-03-14T04:32:19;10.40;88.40
48208;DHT22;33997;53.278;9.708;2023-03-14T04:34:45;10.50;88.00
48208;DHT22;33997;53.278;9.708;2023-03-14T04:37:11;10.40;88.70
48208;DHT22;33997;53.278;9.708;2023-03-14T04:39:36;10.30;89.00
48208;DHT22;33997;53.278;9.708;2023-03-14T04:42:02;10.20;89.10
48208;DHT22;33997;53.278;9.708;2023-03-14T04:44:27;10.20;89.10
48208;DHT22;33997;53.278;9.708;2023-03-14T04:46:53;10.20;89.20
48208;DHT22;33997;53.278;9.708;2023-03-14T04:49:18;10.10;89.60
48208;DHT22;33997;53.278;9.708;2023-03-14T04:51:44;9.90;90.40
48208;DHT22;33997;53.278;9.708;2023-03-14T04:54:09;9.90;90.90
48208;DHT22;33997;53.278;9.708;2023-03-14T04:56:35;9.90;91.30
48208;DHT22;33997;53.278;9.708;2023-03-14T04:59:02;9.80;91.80
48208;DHT22;33997;53.278;9.708;2023-03-14T05:01:28;9.80;91.80
48208;DHT22;33997;53.278;9.708;2023-03-14T05:03:53;9.70;92.10
48208;DHT22;33997;53.278;9.708;2023-03-14T05:06:19;9.60;92.50
48208;DHT22;33997;53.278;9.708;2023-03-14T05:08:44;9.60;92.50
48208;DHT22;33997;53.278;9.708;2023-03-14T05:11:10;9.70;92.10
48208;DHT22;33997;53.278;9.708;2023-03-14T05:13:36;9.80;91.50
48208;DHT22;33997;53.278;9.708;2023-03-14T05:16:11;9.80;91.60
48208;DHT22;33997;53.278;9.708;2023-03-14T05:18:37;9.80;91.50
48208;DHT22;33997;53.278;9.708;2023-03-14T05:21:03;9.90;91.10
48208;DHT22;33997;53.278;9.708;2023-03-14T05:23:29;9.80;91.00
48208;DHT22;33997;53.278;9.708;2023-03-14T05:25:55;9.80;91.30
48208;DHT22;33997;53.278;9.708;2023-03-14T05:28:20;9.90;90.80
48208;DHT22;33997;53.278;9.708;2023-03-14T05:30:46;9.90;90.70
48208;DHT22;33997;53.278;9.708;2023-03-14T05:33:12;9.90;90.30
48208;DHT22;33997;53.278;9.708;2023-03-14T05:35:37;9.90;90.40
48208;DHT22;33997;53.278;9.708;2023-03-14T05:38:03;9.90;90.20
48208;DHT22;33997;53.278;9.708;2023-03-14T05:40:28;9.90;90.20
48208;DHT22;33997;53.278;9.708;2023-03-14T05:42:54;9.90;90.10
48208;DHT22;33997;53.278;9.708;2023-03-14T05:45:19;9.90;89.90
48208;DHT22;33997;53.278;9.708;2023-03-14T05:47:45;9.90;89.90
48208;DHT22;33997;53.278;9.708;2023-03-14T05:50:10;9.80;90.50
48208;DHT22;33997;53.278;9.708;2023-03-14T05:52:36;9.70;90.70
48208;DHT22;33997;53.278;9.708;2023-03-14T05:55:02;9.70;90.90
48208;DHT22;33997;53.278;9.708;2023-03-14T05:57:27;9.60;91.40
48208;DHT22;33997;53.278;9.708;2023-03-14T05:59:53;9.60;91.10
48208;DHT22;33997;53.278;9.708;2023-03-14T06:02:18;9.60;90.70
48208;DHT22;33997;53.278;9.708;2023-03-14T06:04:44;9.70;90.20
48208;DHT22;33997;53.278;9.708;2023-03-14T06:07:09;9.70;90.10
48208;DHT22;33997;53.278;9.708;2023-03-14T06:09:35;9.70;90.00
48208;DHT22;33997;53.278;9.708;2023-03-14T06:12:00;9.70;90.20
48208;DHT22;33997;53.278;9.708;2023-03-14T06:14:26;9.60;90.80
48208;DHT22;33997;53.278;9.708;2023-03-14T06:16:51;9.50;91.20
48208;DHT22;33997;53.278;9.708;2023-03-14T06:19:18;9.50;90.90
48208;DHT22;33997;53.278;9.708;2023-03-14T06:21:43;9.60;90.50
48208;DHT22;33997;53.278;9.708;2023-03-14T06:24:09;9.50;90.60
48208;DHT22;33997;53.278;9.708;2023-03-14T06:26:34;9.60;90.00
48208;DHT22;33997;53.278;9.708;2023-03-14T06:29:00;9.60;90.10
48208;DHT22;33997;53.278;9.708;2023-03-14T06:31:31;9.50;90.30
48208;DHT22;33997;53.278;9.708;2023-03-14T06:33:57;9.50;90.50
48208;DHT22;33997;53.278;9.708;2023-03-14T06:36:23;9.50;90.80
48208;DHT22;33997;53.278;9.708;2023-03-14T06:38:49;9.50;91.00
48208;DHT22;33997;53.278;9.708;2023-03-14T06:41:15;9.40;91.00
48208;DHT22;33997;53.278;9.708;2023-03-14T06:43:40;9.40;90.80
48208;DHT22;33997;53.278;9.708;2023-03-14T06:46:05;9.50;90.30
48208;DHT22;33997;53.278;9.708;2023-03-14T06:48:31;9.40;90.30
48208;DHT22;33997;53.278;9.708;2023-03-14T06:50:57;9.50;90.30
48208;DHT22;33997;53.278;9.708;2023-03-14T06:53:23;9.50;89.50
48208;DHT22;33997;53.278;9.708;2023-03-14T06:55:49;9.50;89.50
48208;DHT22;33997;53.278;9.708;2023-03-14T06:58:15;9.50;89.60
48208;DHT22;33997;53.278;9.708;2023-03-14T07:00:40;9.50;89.50
48208;DHT22;33997;53.278;9.708;2023-03-14T07:03:06;9.50;89.50
48208;DHT22;33997;53.278;9.708;2023-03-14T07:05:31;9.50;89.40
48208;DHT22;33997;53.278;9.708;2023-03-14T07:07:57;9.60;89.60
48208;DHT22;33997;53.278;9.708;2023-03-14T07:10:22;9.60;89.70
48208;DHT22;33997;53.278;9.708;2023-03-14T07:12:48;9.60;89.60
48208;DHT22;33997;53.278;9.708;2023-03-14T07:15:14;9.70;89.60
48208;DHT22;33997;53.278;9.708;2023-03-14T07:17:40;9.80;89.20
48208;DHT22;33997;53.278;9.708;2023-03-14T07:20:06;9.90;89.40
48208;DHT22;33997;53.278;9.708;2023-03-14T07:22:32;9.80;89.30
48208;DHT22;33997;53.278;9.708;2023-03-14T07:24:58;9.80;89.30
48208;DHT22;33997;53.278;9.708;2023-03-14T07:27:23;9.80;89.50
48208;DHT22;33997;53.278;9.708;2023-03-14T07:29:49;9.80;89.90
48208;DHT22;33997;53.278;9.708;2023-03-14T07:32:14;9.70;90.20
48208;DHT22;33997;53.278;9.708;2023-03-14T07:34:41;9.70;90.80
48208;DHT22;33997;53.278;9.708;2023-03-14T07:37:07;9.70;91.10
48208;DHT22;33997;53.278;9.708;2023-03-14T07:39:32;9.60;91.20
48208;DHT22;33997;53.278;9.708;2023-03-14T07:41:58;9.60;91.10
48208;DHT22;33997;53.278;9.708;2023-03-14T07:44:23;9.50;91.10
48208;DHT22;33997;53.278;9.708;2023-03-14T07:46:49;9.50;91.30
48208;DHT22;33997;53.278;9.708;2023-03-14T07:49:14;9.50;91.20
48208;DHT22;33997;53.278;9.708;2023-03-14T07:51:40;9.50;91.40
48208;DHT22;33997;53.278;9.708;2023-03-14T07:54:05;9.50;91.60
48208;DHT22;33997;53.278;9.708;2023-03-14T07:56:31;9.60;91.40
48208;DHT22;33997;53.278;9.708;2023-03-14T07:58:57;9.60;91.50
48208;DHT22;33997;53.278;9.708;2023-03-14T08:01:22;9.60;91.20
48208;DHT22;33997;53.278;9.708;2023-03-14T08:03:47;9.60;91.20
48208;DHT22;33997;53.278;9.708;2023-03-14T08:06:13;9.60;91.30
48208;DHT22;33997;53.278;9.708;2023-03-14T08:08:39;9.70;91.20
48208;DHT22;33997;53.278;9.708;2023-03-14T08:11:06;9.80;90.50
48208;DHT22;33997;53.278;9.708;2023-03-14T08:13:34;9.90;90.30
48208;DHT22;33997;53.278;9.708;2023-03-14T08:16:00;10.10;90.10
48208;DHT22;33997;53.278;9.708;2023-03-14T08:18:25;10.40;88.80
48208;DHT22;33997;53.278;9.708;2023-03-14T08:20:51;10.60;89.10
48208;DHT22;33997;53.278;9.708;2023-03-14T08:23:16;10.60;88.30
48208;DHT22;33997;53.278;9.708;2023-03-14T08:25:42;10.50;88.30
48208;DHT22;33997;53.278;9.708;2023-03-14T08:28:08;10.60;88.50
48208;DHT22;33997;53.278;9.708;2023-03-14T08:30:33;10.50;88.20
48208;DHT22;33997;53.278;9.708;2023-03-14T08:32:59;10.70;88.30
48208;DHT22;33997;53.278;9.708;2023-03-14T08:35:25;10.70;87.80
48208;DHT22;33997;53.278;9.708;2023-03-14T08:37:51;10.70;87.60
48208;DHT22;33997;53.278;9.708;2023-03-14T08:40:17;10.80;87.90
48208;DHT22;33997;53.278;9.708;2023-03-14T08:42:43;10.90;87.50
48208;DHT22;33997;53.278;9.708;2023-03-14T08:45:11;10.90;87.00
48208;DHT22;33997;53.278;9.708;2023-03-14T08:47:37;11.10;86.90
48208;DHT22;33997;53.278;9.708;2023-03-14T08:50:04;11.10;86.40
48208;DHT22;33997;53.278;9.708;2023-03-14T08:52:31;11.10;86.10
48208;DHT22;33997;53.278;9.708;2023-03-14T08:54:56;11.00;85.80
48208;DHT22;33997;53.278;9.708;2023-03-14T08:57:22;10.90;86.00
48208;DHT22;33997;53.278;9.708;2023-03-14T08:59:55;10.90;86.00
48208;DHT22;33997;53.278;9.708;2023-03-14T09:02:21;10.90;86.50
48208;DHT22;33997;53.278;9.708;2023-03-14T09:04:47;11.00;86.20
48208;DHT22;33997;53.278;9.708;2023-03-14T09:07:12;10.80;85.00
48208;DHT22;33997;53.278;9.708;2023-03-14T09:09:38;10.80;85.50
48208;DHT22;33997;53.278;9.708;2023-03-14T09:12:04;10.90;84.80
48208;DHT22;33997;53.278;9.708;2023-03-14T09:14:30;10.90;85.60
48208;DHT22;33997;53.278;9.708;2023-03-14T09:16:56;10.90;85.70
48208;DHT22;33997;53.278;9.708;2023-03-14T09:19:21;11.00;84.70
48208;DHT22;33997;53.278;9.708;2023-03-14T09:21:47;11.00;84.90
48208;DHT22;33997;53.278;9.708;2023-03-14T09:24:12;11.10;84.20
48208;DHT22;33997;53.278;9.708;2023-03-14T09:26:38;11.10;83.80
48208;DHT22;33997;53.278;9.708;2023-03-14T09:29:03;11.10;83.30
48208;DHT22;33997;53.278;9.708;2023-03-14T09:31:29;11.20;83.90
48208;DHT22;33997;53.278;9.708;2023-03-14T09:33:55;11.20;84.60
48208;DHT22;33997;53.278;9.708;2023-03-14T09:36:20;11.00;86.30
48208;DHT22;33997;53.278;9.708;2023-03-14T09:38:46;10.80;86.00
48208;DHT22;33997;53.278;9.708;2023-03-14T09:41:24;10.80;86.20
48208;DHT22;33997;53.278;9.708;2023-03-14T09:43:55;10.60;87.30
48208;DHT22;33997;53.278;9.708;2023-03-14T09:46:22;10.60;87.80
48208;DHT22;33997;53.278;9.708;2023-03-14T09:48:48;10.50;88.60
48208;DHT22;33997;53.278;9.708;2023-03-14T09:51:17;10.40;89.60
48208;DHT22;33997;53.278;9.708;2023-03-14T09:53:47;10.20;90.70
48208;DHT22;33997;53.278;9.708;2023-03-14T09:56:19;10.00;91.40
48208;DHT22;33997;53.278;9.708;2023-03-14T09:58:57;9.70;93.00
48208;DHT22;33997;53.278;9.708;2023-03-14T10:01:27;8.90;95.10
48208;DHT22;33997;53.278;9.708;2023-03-14T10:03:58;7.60;93.00
48208;DHT22;33997;53.278;9.708;2023-03-14T10:06:28;6.80;94.10
48208;DHT22;33997;53.278;9.708;2023-03-14T10:08:55;6.60;94.90
48208;DHT22;33997;53.278;9.708;2023-03-14T10:11:22;6.40;95.60
48208;DHT22;33997;53.278;9.708;2023-03-14T10:16:15;6.30;96.00
48208;DHT22;33997;53.278;9.708;2023-03-14T10:18:45;6.20;95.80
48208;DHT22;33997;53.278;9.708;2023-03-14T10:21:21;6.20;96.10
48208;DHT22;33997;53.278;9.708;2023-03-14T10:23:50;6.10;96.00
48208;DHT22;33997;53.278;9.708;2023-03-14T10:26:18;6.10;96.30
48208;DHT22;33997;53.278;9.708;2023-03-14T10:28:51;6.00;96.50
48208;DHT22;33997;53.278;9.708;2023-03-14T10:31:16;5.90;96.30
48208;DHT22;33997;53.278;9.708;2023-03-14T10:33:42;5.60;95.80
48208;DHT22;33997;53.278;9.708;2023-03-14T10:36:24;5.30;95.10
48208;DHT22;33997;53.278;9.708;2023-03-14T10:38:57;5.10;95.30
48208;DHT22;33997;53.278;9.708;2023-03-14T10:41:31;5.10;95.40
48208;DHT22;33997;53.278;9.708;2023-03-14T10:43:58;4.90;95.60
48208;DHT22;33997;53.278;9.708;2023-03-14T10:46:26;4.80;95.90
48208;DHT22;33997;53.278;9.708;2023-03-14T10:48:53;4.60;95.90
48208;DHT22;33997;53.278;9.708;2023-03-14T10:51:26;4.60;96.40
48208;DHT22;33997;53.278;9.708;2023-03-14T10:54:02;4.60;96.60
48208;DHT22;33997;53.278;9.708;2023-03-14T10:56:35;4.50;96.20
48208;DHT22;33997;53.278;9.708;2023-03-14T10:59:02;4.40;96.20
48208;DHT22;33997;53.278;9.708;2023-03-14T11:07:24;4.50;95.70
48208;DHT22;33997;53.278;9.708;2023-03-14T11:13:11;4.30;95.20
48208;DHT22;33997;53.278;9.708;2023-03-14T11:21:29;4.20;95.20
48208;DHT22;33997;53.278;9.708;2023-03-14T11:29:21;4.30;94.80
48208;DHT22;33997;53.278;9.708;2023-03-14T11:31:48;4.20;94.90
48208;DHT22;33997;53.278;9.708;2023-03-14T11:34:26;4.10;94.40
48208;DHT22;33997;53.278;9.708;2023-03-14T11:37:00;4.10;94.40
48208;DHT22;33997;53.278;9.708;2023-03-14T11:39:35;4.10;94.70
48208;DHT22;33997;53.278;9.708;2023-03-14T11:42:03;4.10;95.00
48208;DHT22;33997;53.278;9.708;2023-03-14T11:44:32;4.20;94.70
48208;DHT22;33997;53.278;9.708;2023-03-14T11:47:01;4.30;95.00
48208;DHT22;33997;53.278;9.708;2023-03-14T11:49:45;4.30;94.50
48208;DHT22;33997;53.278;9.708;2023-03-14T11:52:20;4.30;93.50
48208;DHT22;33997;53.278;9.708;2023-03-14T11:54:53;4.30;93.60
48208;DHT22;33997;53.278;9.708;2023-03-14T11:57:22;4.30;93.80
48208;DHT22;33997;53.278;9.708;2023-03-14T12:00:02;4.20;93.30
48208;DHT22;33997;53.278;9.708;2023-03-14T12:02:41;4.10;93.50
48208;DHT22;33997;53.278;9.708;2023-03-14T12:11:32;4.30;94.10
48208;DHT22;33997;53.278;9.708;2023-03-14T12:13:58;4.20;93.60
48208;DHT22;33997;53.278;9.708;2023-03-14T12:16:27;4.40;94.30
48208;DHT22;33997;53.278;9.708;2023-03-14T12:18:55;4.50;94.40
48208;DHT22;33997;53.278;9.708;2023-03-14T12:21:20;4.50;93.70
48208;DHT22;33997;53.278;9.708;2023-03-14T12:23:55;4.50;93.80
48208;DHT22;33997;53.278;9.708;2023-03-14T12:26:28;4.70;93.30
48208;DHT22;33997;53.278;9.708;2023-03-14T12:29:16;4.80;93.20
48208;DHT22;33997;53.278;9.708;2023-03-14T12:31:49;4.90;92.50
48208;DHT22;33997;53.278;9.708;2023-03-14T12:34:38;5.00;93.30
48208;DHT22;33997;53.278;9.708;2023-03-14T12:45:29;4.70;91.20
48208;DHT22;33997;53.278;9.708;2023-03-14T12:48:09;4.60;90.70
48208;DHT22;33997;53.278;9.708;2023-03-14T12:50:44;4.50;92.20
48208;DHT22;33997;53.278;9.708;2023-03-14T12:58:59;4.60;91.80
48208;DHT22;33997;53.278;9.708;2023-03-14T13:01:27;4.80;90.50
48208;DHT22;33997;53.278;9.708;2023-03-14T13:03:58;4.90;90.60
48208;DHT22;33997;53.278;9.708;2023-03-14T13:12:10;5.10;88.20
48208;DHT22;33997;53.278;9.708;2023-03-14T13:14:41;5.00;86.70
48208;DHT22;33997;53.278;9.708;2023-03-14T13:17:12;5.10;87.20
48208;DHT22;33997;53.278;9.708;2023-03-14T13:19:38;5.30;85.50
48208;DHT22;33997;53.278;9.708;2023-03-14T13:22:11;5.60;84.00
48208;DHT22;33997;53.278;9.708;2023-03-14T13:24:38;5.90;82.40
48208;DHT22;33997;53.278;9.708;2023-03-14T13:27:03;6.00;77.40
48208;DHT22;33997;53.278;9.708;2023-03-14T13:29:32;5.80;73.50
48208;DHT22;33997;53.278;9.708;2023-03-14T13:32:10;5.70;73.00
48208;DHT22;33997;53.278;9.708;2023-03-14T13:34:38;5.60;71.10
48208;DHT22;33997;53.278;9.708;2023-03-14T13:37:03;5.60;70.00
48208;DHT22;33997;53.278;9.708;2023-03-14T13:39:29;5.80;69.90
48208;DHT22;33997;53.278;9.708;2023-03-14T13:42:01;6.00;68.60
48208;DHT22;33997;53.278;9.708;2023-03-14T13:44:36;6.10;68.00
48208;DHT22;33997;53.278;9.708;2023-03-14T13:47:05;6.30;66.10
48208;DHT22;33997;53.278;9.708;2023-03-14T13:49:33;6.40;66.80
48208;DHT22;33997;53.278;9.708;2023-03-14T13:52:01;6.40;65.90
48208;DHT22;33997;53.278;9.708;2023-03-14T13:54:27;6.30;66.00
48208;DHT22;33997;53.278;9.708;2023-03-14T13:57:04;5.90;65.90
48208;DHT22;33997;53.278;9.708;2023-03-14T13:59:32;5.80;66.70
48208;DHT22;33997;53.278;9.708;2023-03-14T14:02:04;5.70;68.90
48208;DHT22;33997;53.278;9.708;2023-03-14T14:04:32;5.60;69.70
48208;DHT22;33997;53.278;9.708;2023-03-14T14:06:59;5.40;69.30
48208;DHT22;33997;53.278;9.708;2023-03-14T14:09:31;5.30;70.70
48208;DHT22;33997;53.278;9.708;2023-03-14T14:12:10;5.50;68.20
48208;DHT22;33997;53.278;9.708;2023-03-14T14:14:51;6.00;66.30
48208;DHT22;33997;53.278;9.708;2023-03-14T14:17:20;6.40;63.20
48208;DHT22;33997;53.278;9.708;2023-03-14T14:19:47;6.40;63.10
48208;DHT22;33997;53.278;9.708;2023-03-14T14:22:13;5.90;63.90
48208;DHT22;33997;53.278;9.708;2023-03-14T14:24:39;5.90;64.50
48208;DHT22;33997;53.278;9.708;2023-03-14T14:27:19;5.90;63.30
48208;DHT22;33997;53.278;9.708;2023-03-14T14:29:58;5.60;63.50
48208;DHT22;33997;53.278;9.708;2023-03-14T14:32:24;5.60;66.50
48208;DHT22;33997;53.278;9.708;2023-03-14T14:34:58;5.40;67.10
48208;DHT22;33997;53.278;9.708;2023-03-14T14:37:30;5.30;67.60
48208;DHT22;33997;53.278;9.708;2023-03-14T14:39:58;5.30;70.20
48208;DHT22;33997;53.278;9.708;2023-03-14T14:42:27;4.90;70.70
48208;DHT22;33997;53.278;9.708;2023-03-14T14:44:56;4.80;72.50
48208;DHT22;33997;53.278;9.708;2023-03-14T14:47:24;4.70;73.50
48208;DHT22;33997;53.278;9.708;2023-03-14T14:49:52;4.70;73.10
48208;DHT22;33997;53.278;9.708;2023-03-14T14:55:00;4.80;72.70
48208;DHT22;33997;53.278;9.708;2023-03-14T14:57:37;4.90;73.40
48208;DHT22;33997;53.278;9.708;2023-03-14T15:00:17;5.00;73.80
48208;DHT22;33997;53.278;9.708;2023-03-14T15:02:47;5.20;73.70
48208;DHT22;33997;53.278;9.708;2023-03-14T15:05:27;5.20;73.40
48208;DHT22;33997;53.278;9.708;2023-03-14T15:07:55;5.50;71.20
48208;DHT22;33997;53.278;9.708;2023-03-14T15:10:24;6.20;69.70
48208;DHT22;33997;53.278;9.708;2023-03-14T15:12:50;6.30;69.30
48208;DHT22;33997;53.278;9.708;2023-03-14T15:15:16;6.60;68.70
48208;DHT22;33997;53.278;9.708;2023-03-14T15:17:42;7.40;65.30
48208;DHT22;33997;53.278;9.708;2023-03-14T15:20:14;8.00;62.80
48208;DHT22;33997;53.278;9.708;2023-03-14T15:22:40;8.00;61.80
48208;DHT22;33997;53.278;9.708;2023-03-14T15:25:07;7.30;62.70
48208;DHT22;33997;53.278;9.708;2023-03-14T15:27:33;6.60;61.50
48208;DHT22;33997;53.278;9.708;2023-03-14T15:29:59;6.50;62.60
48208;DHT22;33997;53.278;9.708;2023-03-14T15:32:25;6.30;62.30
48208;DHT22;33997;53.278;9.708;2023-03-14T15:34:55;6.20;63.80
48208;DHT22;33997;53.278;9.708;2023-03-14T15:37:21;6.00;64.60
48208;DHT22;33997;53.278;9.708;2023-03-14T15:39:46;5.90;66.10
48208;DHT22;33997;53.278;9.708;2023-03-14T15:42:12;5.60;66.50
48208;DHT22;33997;53.278;9.708;2023-03-14T15:44:38;5.50;66.90
48208;DHT22;33997;53.278;9.708;2023-03-14T15:47:04;5.30;68.10
48208;DHT22;33997;53.278;9.708;2023-03-14T15:49:31;5.30;68.00
48208;DHT22;33997;53.278;9.708;2023-03-14T15:51:57;5.30;68.80
48208;DHT22;33997;53.278;9.708;2023-03-14T15:54:22;5.40;68.80
48208;DHT22;33997;53.278;9.708;2023-03-14T15:56:48;5.50;68.70
48208;DHT22;33997;53.278;9.708;2023-03-14T15:59:13;5.60;68.40
48208;DHT22;33997;53.278;9.708;2023-03-14T16:01:38;5.60;66.90
48208;DHT22;33997;53.278;9.708;2023-03-14T16:04:04;5.90;66.60
48208;DHT22;33997;53.278;9.708;2023-03-14T16:06:29;5.70;66.40
48208;DHT22;33997;53.278;9.708;2023-03-14T16:08:56;5.70;66.40
48208;DHT22;33997;53.278;9.708;2023-03-14T16:11:22;5.70;63.70
48208;DHT22;33997;53.278;9.708;2023-03-14T16:13:47;5.70;63.00
48208;DHT22;33997;53.278;9.708;2023-03-14T16:16:13;5.60;61.90
48208;DHT22;33997;53.278;9.708;2023-03-14T16:18:40;5.30;62.80
48208;DHT22;33997;53.278;9.708;2023-03-14T16:21:11;5.20;64.30
48208;DHT22;33997;53.278;9.708;2023-03-14T16:23:37;5.10;65.10
48208;DHT22;33997;53.278;9.708;2023-03-14T16:26:08;5.00;66.20
48208;DHT22;33997;53.278;9.708;2023-03-14T16:28:34;5.00;66.50
48208;DHT22;33997;53.278;9.708;2023-03-14T16:31:10;4.90;66.10
48208;DHT22;33997;53.278;9.708;2023-03-14T16:33:37;5.00;67.50
48208;DHT22;33997;53.278;9.708;2023-03-14T16:36:05;5.00;67.10
48208;DHT22;33997;53.278;9.708;2023-03-14T16:38:33;4.80;67.40
48208;DHT22;33997;53.278;9.708;2023-03-14T16:41:04;4.70;67.70
48208;DHT22;33997;53.278;9.708;2023-03-14T16:43:30;4.60;68.90
48208;DHT22;33997;53.278;9.708;2023-03-14T16:45:59;4.60;70.20